地図

経路データ

SID SEASON NUMBER BASIN SUBBASIN NAME ISO_TIME NATURE LAT LON WMO_WIND WMO_PRES WMO_AGENCY TRACK_TYPE DIST2LAND LANDFALL IFLAG USA_AGENCY USA_ATCF_ID USA_LAT USA_LON USA_RECORD USA_STATUS USA_WIND USA_PRES USA_SSHS USA_R34_NE USA_R34_SE USA_R34_SW USA_R34_NW USA_R50_NE USA_R50_SE USA_R50_SW USA_R50_NW USA_R64_NE USA_R64_SE USA_R64_SW USA_R64_NW USA_POCI USA_ROCI USA_RMW USA_EYE TOKYO_LAT TOKYO_LON TOKYO_GRADE TOKYO_WIND TOKYO_PRES TOKYO_R50_DIR TOKYO_R50_LONG TOKYO_R50_SHORT TOKYO_R30_DIR TOKYO_R30_LONG TOKYO_R30_SHORT TOKYO_LAND CMA_LAT CMA_LON CMA_CAT CMA_WIND CMA_PRES HKO_LAT HKO_LON HKO_CAT HKO_WIND HKO_PRES NEWDELHI_LAT NEWDELHI_LON NEWDELHI_GRADE NEWDELHI_WIND NEWDELHI_PRES NEWDELHI_CI NEWDELHI_DP NEWDELHI_POCI REUNION_LAT REUNION_LON REUNION_TYPE REUNION_WIND REUNION_PRES REUNION_TNUM REUNION_CI REUNION_RMW REUNION_R34_NE REUNION_R34_SE REUNION_R34_SW REUNION_R34_NW REUNION_R50_NE REUNION_R50_SE REUNION_R50_SW REUNION_R50_NW REUNION_R64_NE REUNION_R64_SE REUNION_R64_SW REUNION_R64_NW BOM_LAT BOM_LON BOM_TYPE BOM_WIND BOM_PRES BOM_TNUM BOM_CI BOM_RMW BOM_R34_NE BOM_R34_SE BOM_R34_SW BOM_R34_NW BOM_R50_NE BOM_R50_SE BOM_R50_SW BOM_R50_NW BOM_R64_NE BOM_R64_SE BOM_R64_SW BOM_R64_NW BOM_ROCI BOM_POCI BOM_EYE BOM_POS_METHOD BOM_PRES_METHOD NADI_LAT NADI_LON NADI_CAT NADI_WIND NADI_PRES WELLINGTON_LAT WELLINGTON_LON WELLINGTON_WIND WELLINGTON_PRES DS824_LAT DS824_LON DS824_STAGE DS824_WIND DS824_PRES TD9636_LAT TD9636_LON TD9636_STAGE TD9636_WIND TD9636_PRES TD9635_LAT TD9635_LON TD9635_WIND TD9635_PRES TD9635_ROCI NEUMANN_LAT NEUMANN_LON NEUMANN_CLASS NEUMANN_WIND NEUMANN_PRES MLC_LAT MLC_LON MLC_CLASS MLC_WIND MLC_PRES USA_GUST BOM_GUST BOM_GUST_PER REUNION_GUST REUNION_GUST_PER USA_SEAHGT USA_SEARAD_NE USA_SEARAD_SE USA_SEARAD_SW USA_SEARAD_NW STORM_SPEED STORM_DIR
1992300N13249 1992 117 EP MM ZEKE 1992-10-25 12:00:00 TS 12.6000 -111.400 25 1009 hurdat_epa main 1021 1020 O_____________ hurdat_epa EP271992 12.6000 -111.400 TD 25 1009 -1 10 301
1992300N13249 1992 117 EP MM ZEKE 1992-10-25 15:00:00 TS 12.8727 -111.857 main 1035 1035 P_____________ EP271992 12.8727 -111.857 TD 27 1008 -1 10 300
1992300N13249 1992 117 EP MM ZEKE 1992-10-25 18:00:00 TS 13.1000 -112.300 30 1008 hurdat_epa main 1050 1049 O_____________ hurdat_epa EP271992 13.1000 -112.300 TD 30 1008 -1 9 295
1992300N13249 1992 117 EP MM ZEKE 1992-10-25 21:00:00 TS 13.2574 -112.715 main 1065 1065 P_____________ EP271992 13.2574 -112.715 TD 32 1006 -1 8 291
1992300N13249 1992 117 EP MM ZEKE 1992-10-26 00:00:00 TS 13.4000 -113.100 35 1005 hurdat_epa main 1089 1089 O_____________ hurdat_epa EP271992 13.4000 -113.100 TS 35 1005 0 8 295
1992300N13249 1992 117 EP MM ZEKE 1992-10-26 03:00:00 TS 13.5849 -113.450 main 1104 1090 P_____________ EP271992 13.5849 -113.450 TS 35 1005 0 8 300
1992300N13249 1992 117 EP MM ZEKE 1992-10-26 06:00:00 TS 13.8000 -113.800 35 1005 hurdat_epa main 1094 1085 O_____________ hurdat_epa EP271992 13.8000 -113.800 TS 35 1005 0 9 302
1992300N13249 1992 117 EP MM ZEKE 1992-10-26 09:00:00 TS 14.0350 -114.193 main 1089 1072 P_____________ EP271992 14.0350 -114.193 TS 35 1005 0 9 303
1992300N13249 1992 117 EP MM ZEKE 1992-10-26 12:00:00 TS 14.3000 -114.600 35 1005 hurdat_epa main 1077 1066 O_____________ hurdat_epa EP271992 14.3000 -114.600 TS 35 1005 0 10 305
1992300N13249 1992 117 EP MM ZEKE 1992-10-26 15:00:00 TS 14.5925 -115.008 main 1067 1058 P_____________ EP271992 14.5925 -115.008 TS 35 1005 0 10 308
1992300N13249 1992 117 EP MM ZEKE 1992-10-26 18:00:00 TS 14.9000 -115.400 35 1005 hurdat_epa main 1059 1048 O_____________ hurdat_epa EP271992 14.9000 -115.400 TS 35 1005 0 10 309
1992300N13249 1992 117 EP MM ZEKE 1992-10-26 21:00:00 TS 15.2075 -115.780 main 1054 1045 P_____________ EP271992 15.2075 -115.780 TS 35 1005 0 9 312
1992300N13249 1992 117 EP MM ZEKE 1992-10-27 00:00:00 TS 15.5000 -116.100 35 1006 hurdat_epa main 1046 1041 O_____________ hurdat_epa EP271992 15.5000 -116.100 TS 35 1006 0 8 316
1992300N13249 1992 117 EP MM ZEKE 1992-10-27 03:00:00 TS 15.7574 -116.338 main 1032 1029 P_____________ EP271992 15.7574 -116.338 TS 32 1007 -1 6 322
1992300N13249 1992 117 EP MM ZEKE 1992-10-27 06:00:00 TS 16.0000 -116.500 30 1008 hurdat_epa main 1029 1019 O_____________ hurdat_epa EP271992 16.0000 -116.500 TD 30 1008 -1 6 331
1992300N13249 1992 117 EP MM ZEKE 1992-10-27 09:00:00 TS 16.2500 -116.623 main 1019 1001 P_____________ EP271992 16.2500 -116.623 TD 30 1008 -1 5 339
1992300N13249 1992 117 EP MM ZEKE 1992-10-27 12:00:00 TS 16.5000 -116.700 30 1008 hurdat_epa main 1001 985 O_____________ hurdat_epa EP271992 16.5000 -116.700 TD 30 1008 -1 5 345
1992300N13249 1992 117 EP MM ZEKE 1992-10-27 15:00:00 TS 16.7575 -116.765 main 985 969 P_____________ EP271992 16.7575 -116.765 TD 30 1007 -1 5 349
1992300N13249 1992 117 EP MM ZEKE 1992-10-27 18:00:00 TS 17.0000 -116.800 30 1007 hurdat_epa main 969 954 O_____________ hurdat_epa EP271992 17.0000 -116.800 TD 30 1007 -1 5 354
1992300N13249 1992 117 EP MM ZEKE 1992-10-27 21:00:00 TS 17.2150 -116.808 main 954 938 P_____________ EP271992 17.2150 -116.808 TD 32 1006 -1 4 0
1992300N13249 1992 117 EP MM ZEKE 1992-10-28 00:00:00 TS 17.4000 -116.800 35 1005 hurdat_epa main 938 931 O_____________ hurdat_epa EP271992 17.4000 -116.800 TS 35 1005 0 3 2
1992300N13249 1992 117 EP MM ZEKE 1992-10-28 03:00:00 TS 17.5575 -116.807 main 924 916 P_____________ EP271992 17.5575 -116.807 TS 35 1005 0 3 0
1992300N13249 1992 117 EP MM ZEKE 1992-10-28 06:00:00 TS 17.7000 -116.800 35 1005 hurdat_epa main 916 909 O_____________ hurdat_epa EP271992 17.7000 -116.800 TS 35 1005 0 3 9
1992300N13249 1992 117 EP MM ZEKE 1992-10-28 09:00:00 TS 17.8500 -116.758 main 901 886 P_____________ EP271992 17.8500 -116.758 TS 35 1005 0 3 17
1992300N13249 1992 117 EP MM ZEKE 1992-10-28 12:00:00 TS 18.0000 -116.700 35 1005 hurdat_epa main 886 877 O_____________ hurdat_epa EP271992 18.0000 -116.700 TS 35 1005 0 3 17
1992300N13249 1992 117 EP MM ZEKE 1992-10-28 15:00:00 TS 18.1575 -116.657 main 867 852 P_____________ EP271992 18.1575 -116.657 TS 35 1005 0 3 17
1992300N13249 1992 117 EP MM ZEKE 1992-10-28 18:00:00 TS 18.3000 -116.600 35 1005 hurdat_epa main 852 837 O_____________ hurdat_epa EP271992 18.3000 -116.600 TS 35 1005 0 3 30
1992300N13249 1992 117 EP MM ZEKE 1992-10-28 21:00:00 TS 18.4000 -116.515 main 837 822 P_____________ EP271992 18.4000 -116.515 TS 35 1005 0 3 44
1992300N13249 1992 117 EP MM ZEKE 1992-10-29 00:00:00 TS 18.5000 -116.400 35 1005 hurdat_epa main 822 807 O_____________ hurdat_epa EP271992 18.5000 -116.400 TS 35 1005 0 3 44
1992300N13249 1992 117 EP MM ZEKE 1992-10-29 03:00:00 TS 18.6425 -116.272 main 807 776 P_____________ EP271992 18.6425 -116.272 TS 35 1005 0 4 43
1992300N13249 1992 117 EP MM ZEKE 1992-10-29 06:00:00 TS 18.8000 -116.100 35 1005 hurdat_epa main 776 755 O_____________ hurdat_epa EP271992 18.8000 -116.100 TS 35 1005 0 5 50
1992300N13249 1992 117 EP MM ZEKE 1992-10-29 09:00:00 TS 18.9574 -115.880 main 746 719 P_____________ EP271992 18.9574 -115.880 TS 37 1004 0 6 58
1992300N13249 1992 117 EP MM ZEKE 1992-10-29 12:00:00 TS 19.1000 -115.600 40 1003 hurdat_epa main 719 688 O_____________ hurdat_epa EP271992 19.1000 -115.600 TS 40 1003 0 6 66
1992300N13249 1992 117 EP MM ZEKE 1992-10-29 15:00:00 TS 19.2075 -115.272 main 688 648 P_____________ EP271992 19.2075 -115.272 TS 42 1001 0 7 73
1992300N13249 1992 117 EP MM ZEKE 1992-10-29 18:00:00 TS 19.3000 -114.900 45 1000 hurdat_epa main 648 608 O_____________ hurdat_epa EP271992 19.3000 -114.900 TS 45 1000 0 7 75
1992300N13249 1992 117 EP MM ZEKE 1992-10-29 21:00:00 TS 19.4075 -114.508 main 608 570 P_____________ EP271992 19.4075 -114.508 TS 42 1001 0 8 75
1992300N13249 1992 117 EP MM ZEKE 1992-10-30 00:00:00 TS 19.5000 -114.100 40 1002 hurdat_epa main 570 532 O_____________ hurdat_epa EP271992 19.5000 -114.100 TS 40 1002 0 8 79
1992300N13249 1992 117 EP MM ZEKE 1992-10-30 03:00:00 TS 19.5574 -113.707 main 532 503 P_____________ EP271992 19.5574 -113.707 TS 37 1003 0 8 82
1992300N13249 1992 117 EP MM ZEKE 1992-10-30 06:00:00 TS 19.6000 -113.300 35 1005 hurdat_epa main 503 475 O_____________ hurdat_epa EP271992 19.6000 -113.300 TS 35 1005 0 8 83
1992300N13249 1992 117 EP MM ZEKE 1992-10-30 09:00:00 TS 19.6499 -112.857 main 475 435 P_____________ EP271992 19.6499 -112.857 TS 32 1007 -1 9 83
1992300N13249 1992 117 EP MM ZEKE 1992-10-30 12:00:00 TS 19.7000 -112.400 30 1009 hurdat_epa main 435 413 O_____________ hurdat_epa EP271992 19.7000 -112.400 TD 30 1009 -1 9 83
1992300N13249 1992 117 EP MM ZEKE 1992-10-30 15:00:00 TS 19.7502 -111.948 main 398 379 P_____________ EP271992 19.7502 -111.948 TD 27 1009 -1 9 83
1992300N13249 1992 117 EP MM ZEKE 1992-10-30 18:00:00 TS 19.8000 -111.500 25 1009 hurdat_epa main 379 O_____________ hurdat_epa EP271992 19.8000 -111.500 TD 25 1009 -1 8 83

IBTrACS Databaseについて

本データベースは、米国NOAAが公開する1842年以降の世界の熱帯低気圧のベストトラックデータアーカイブInternational Best Track Archive for Climate Stewardship (IBTrACS)を、ウェブで閲覧しやすい形式に変換したものです。

最終更新日:2021-10-25